Time;durP1;ratioP1;P1;durP2;ratioP2;P2;SDS_P1;SDS_P2;PMS_P1;PMS_P2;Temp;Humidity;BMP_temperature;BMP_pressure;BME280_temperature;BME280_humidity;BME280_pressure;Samples;Min_cycle;Max_cycle;Signal;HPM_P1;HPM_P2
2022/08/29 00:01:35;;;;;;;10.85;3.10;;;;;;;21.36;41.07;100804.41;4113098;28;20300;-68
2022/08/29 00:03:41;;;;;;;6.15;2.75;;;;;;;21.25;41.27;100796.75;4113018;28;20066;-67
2022/08/29 00:05:45;;;;;;;8.25;2.58;;;;;;;21.25;41.21;100797.63;4112669;28;20389;-67
2022/08/29 00:07:52;;;;;;;8.30;2.80;;;;;;;21.27;41.05;100800.22;4114552;28;20523;-67
2022/08/29 00:09:56;;;;;;;7.22;2.25;;;;;;;21.29;40.93;100801.06;4111729;28;20514;-67
2022/08/29 00:11:59;;;;;;;12.75;2.75;;;;;;;21.21;41.10;100801.25;4097478;29;20043;-67
2022/08/29 00:14:02;;;;;;;5.60;2.55;;;;;;;21.20;41.30;100799.53;4110642;28;20042;-68
2022/08/29 00:16:05;;;;;;;10.80;2.78;;;;;;;21.17;41.31;100799.56;4126738;28;20050;-68
2022/08/29 00:18:09;;;;;;;6.35;2.72;;;;;;;21.08;41.48;100800.69;4125178;28;20104;-68
2022/08/29 00:20:17;;;;;;;9.35;2.65;;;;;;;21.21;41.04;100801.25;4112425;28;20403;-68
2022/08/29 00:22:19;;;;;;;10.13;3.47;;;;;;;21.10;41.03;100803.31;4112706;28;20078;-67
2022/08/29 00:24:22;;;;;;;6.47;2.58;;;;;;;21.03;41.42;100801.72;4113273;28;20040;-67
2022/08/29 00:26:27;;;;;;;12.18;2.80;;;;;;;21.00;41.37;100797.34;4107631;28;20423;-67
2022/08/29 00:28:33;;;;;;;10.85;3.00;;;;;;;21.04;41.58;100798.13;4112210;28;20046;-68
2022/08/29 00:30:36;;;;;;;6.55;2.28;;;;;;;20.97;41.94;100794.78;4112925;28;20061;-67
2022/08/29 00:32:39;;;;;;;7.78;2.75;;;;;;;20.98;42.04;100806.22;4113330;28;20047;-68
2022/08/29 00:34:42;;;;;;;8.35;2.78;;;;;;;20.99;42.05;100805.31;4113942;28;20114;-68
2022/08/29 00:36:45;;;;;;;8.05;2.72;;;;;;;20.98;42.24;100801.78;4114112;28;20507;-68
2022/08/29 00:38:51;;;;;;;10.57;2.53;;;;;;;20.97;42.18;100801.81;4105748;28;20447;-68
2022/08/29 00:40:56;;;;;;;6.38;2.40;;;;;;;20.92;42.08;100801.94;4105887;28;20378;-68
2022/08/29 00:43:01;;;;;;;7.93;2.42;;;;;;;20.84;42.41;100807.41;4115275;28;20054;-68
2022/08/29 00:45:06;;;;;;;6.45;2.65;;;;;;;20.86;41.99;100805.59;4125065;28;20054;-68
2022/08/29 00:47:12;;;;;;;9.90;2.88;;;;;;;20.83;42.38;100807.44;4117184;28;20046;-68
2022/08/29 00:49:25;;;;;;;8.05;2.88;;;;;;;20.73;42.66;100804.13;4115611;28;20558;-68
2022/08/29 00:51:28;;;;;;;7.07;2.60;;;;;;;20.67;42.90;100812.22;4115668;28;20039;-68
2022/08/29 00:53:36;;;;;;;7.05;2.60;;;;;;;20.73;42.61;100812.06;4115576;28;20057;-67
2022/08/29 00:55:40;;;;;;;6.63;2.80;;;;;;;20.73;42.66;100812.06;4116344;28;20039;-67
2022/08/29 00:57:45;;;;;;;;;;;;;;;20.57;42.93;100808.84;4118065;28;20049;-68
2022/08/29 00:59:50;;;;;;;9.32;2.83;;;;;;;20.61;43.01;100812.31;4115844;28;19922;-68
2022/08/29 01:01:54;;;;;;;4.40;2.22;;;;;;;20.56;43.03;100813.28;4116030;28;20407;-68
2022/08/29 01:03:57;;;;;;;7.97;3.05;;;;;;;20.55;43.31;100814.16;4117059;28;20043;-68
2022/08/29 01:06:02;;;;;;;;;;;;;;;20.35;43.69;100817.22;4113895;28;20046;-67
2022/08/29 01:08:06;;;;;;;8.32;2.63;;;;;;;20.49;43.21;100819.59;4111156;28;19929;-68
2022/08/29 01:12:14;;;;;;;8.05;2.92;;;;;;;20.53;43.42;100815.09;4116697;28;20047;-68
2022/08/29 01:12:34;;;;;;;7.82;2.85;;;;;;;20.41;43.42;100813.59;4115379;28;20047;-67
2022/08/29 01:14:40;;;;;;;8.45;2.75;;;;;;;20.42;43.45;100819.75;4115492;28;20066;-68
2022/08/29 01:16:45;;;;;;;5.32;2.85;;;;;;;20.42;43.41;100815.34;4115841;28;20125;-67
2022/08/29 01:18:53;;;;;;;7.57;2.90;;;;;;;20.45;43.45;100819.69;4116157;28;20042;-68
2022/08/29 01:21:08;;;;;;;7.65;2.67;;;;;;;20.38;43.81;100816.28;4114803;28;20051;-67
2022/08/29 01:23:15;;;;;;;9.80;2.83;;;;;;;20.39;43.81;100818.91;4114376;28;20049;-67
2022/08/29 01:25:23;;;;;;;8.52;3.20;;;;;;;20.41;43.75;100826.78;4112383;28;20050;-68
2022/08/29 01:27:29;;;;;;;8.77;3.20;;;;;;;20.42;43.78;100823.25;4114627;28;20065;-67
2022/08/29 01:29:33;;;;;;;7.18;2.72;;;;;;;20.41;43.69;100826.78;4117300;28;20043;-68
2022/08/29 01:31:40;;;;;;;11.05;2.97;;;;;;;20.41;43.58;100818.88;4114537;28;20041;-68
2022/08/29 01:33:59;;;;;;;7.53;2.60;;;;;;;20.28;43.90;100822.66;4111637;28;20046;-68
2022/08/29 01:36:03;;;;;;;8.75;2.78;;;;;;;20.29;44.14;100824.41;4114173;28;20045;-68
2022/08/29 01:38:06;;;;;;;9.60;3.17;;;;;;;20.30;43.86;100831.44;4113544;28;20506;-68
2022/08/29 01:40:10;;;;;;;9.52;2.72;;;;;;;20.23;44.41;100828.03;4111051;28;20070;-68
2022/08/29 01:42:19;;;;;;;6.05;2.55;;;;;;;20.17;44.94;100821.13;4114087;28;20039;-67
2022/08/29 01:44:24;;;;;;;7.05;3.03;;;;;;;20.14;44.87;100831.75;4114015;28;20481;-68
2022/08/29 01:46:30;;;;;;;7.60;3.00;;;;;;;20.16;45.08;100832.56;4113924;28;20133;-68
2022/08/29 01:48:33;;;;;;;6.75;2.75;;;;;;;20.11;45.05;100829.16;4109666;28;20039;-68
2022/08/29 01:50:36;;;;;;;5.60;2.80;;;;;;;20.15;45.20;100832.59;4115111;28;20035;-68
2022/08/29 01:52:38;;;;;;;10.05;3.17;;;;;;;20.11;45.36;100823.88;4115191;28;20488;-68
2022/08/29 01:54:43;;;;;;;7.57;3.17;;;;;;;20.17;45.05;100828.19;4114364;28;20055;-68
2022/08/29 01:56:48;;;;;;;14.70;4.13;;;;;;;20.10;45.02;100835.34;4115348;28;20043;-67
2022/08/29 01:58:54;;;;;;;7.28;2.65;;;;;;;20.07;44.97;100835.41;4107786;28;20510;-68
2022/08/29 02:00:57;;;;;;;9.15;2.85;;;;;;;20.04;45.15;100835.47;4115760;28;20422;-68
2022/08/29 02:03:00;;;;;;;9.70;2.70;;;;;;;19.98;45.46;100836.44;4115034;28;20035;-68
2022/08/29 02:05:04;;;;;;;12.00;3.53;;;;;;;19.98;45.32;100836.44;4114901;28;20049;-68
2022/08/29 02:07:08;;;;;;;9.35;2.97;;;;;;;19.93;45.26;100837.41;4114390;28;20041;-68
2022/08/29 02:09:14;;;;;;;11.50;3.08;;;;;;;19.85;45.34;100850.75;4110626;28;20122;-67
2022/08/29 02:11:18;;;;;;;8.38;3.00;;;;;;;19.87;45.08;100841.94;4114332;28;20049;-67
2022/08/29 02:13:22;;;;;;;9.70;3.13;;;;;;;19.84;45.06;100842.00;4114709;28;20035;-68
2022/08/29 02:15:27;;;;;;;4.70;2.60;;;;;;;19.78;45.48;100842.06;4115509;28;20045;-68
2022/08/29 02:17:30;;;;;;;9.32;2.75;;;;;;;19.72;45.34;100847.44;4115673;28;20045;-67
2022/08/29 02:19:33;;;;;;;7.05;2.72;;;;;;;19.68;45.49;100853.66;4114838;28;20046;-67
2022/08/29 02:21:36;;;;;;;9.18;3.38;;;;;;;19.68;45.51;100840.47;4115613;28;20038;-67
2022/08/29 02:23:40;;;;;;;6.57;2.72;;;;;;;19.65;45.62;100849.28;4114800;28;20488;-68
2022/08/29 02:25:46;;;;;;;7.82;2.70;;;;;;;19.64;45.78;100855.50;4114046;28;20117;-68
2022/08/29 02:27:51;;;;;;;9.43;2.95;;;;;;;19.59;45.55;100852.03;4107007;28;20045;-68
2022/08/29 02:29:54;;;;;;;5.80;2.40;;;;;;;19.64;45.50;100854.59;4115098;28;20043;-68
2022/08/29 02:31:58;;;;;;;6.88;3.15;;;;;;;19.53;45.85;100853.00;4113598;28;20737;-68
2022/08/29 02:34:01;;;;;;;6.70;2.90;;;;;;;19.48;46.16;100854.88;4111262;28;20529;-68
2022/08/29 02:36:04;;;;;;;11.50;3.63;;;;;;;19.40;46.51;100855.88;4114133;28;20042;-68
2022/08/29 02:38:08;;;;;;;8.85;3.40;;;;;;;19.45;46.17;100851.41;4114600;28;20047;-68
2022/08/29 02:40:11;;;;;;;10.30;3.47;;;;;;;19.47;46.32;100849.63;4111053;28;20042;-68
2022/08/29 02:42:14;;;;;;;7.75;2.67;;;;;;;19.41;46.25;100849.72;4112455;28;20550;-68
2022/08/29 02:44:19;;;;;;;8.95;2.40;;;;;;;19.34;46.70;100855.06;4125134;28;20474;-67
2022/08/29 02:46:22;;;;;;;6.22;2.80;;;;;;;19.39;46.70;100848.88;4111381;28;20038;-68
2022/08/29 02:48:28;;;;;;;11.30;2.90;;;;;;;19.43;46.18;100854.06;4110982;28;20042;-68
2022/08/29 02:50:31;;;;;;;8.27;3.25;;;;;;;19.43;46.42;100854.06;4115297;28;20039;-68
2022/08/29 02:52:34;;;;;;;6.03;2.67;;;;;;;19.32;46.47;100851.59;4113975;28;20484;-67
2022/08/29 02:54:39;;;;;;;8.40;2.88;;;;;;;19.36;46.39;100858.56;4114684;28;20035;-67
2022/08/29 02:56:42;;;;;;;9.80;2.83;;;;;;;19.36;46.31;100848.03;4111424;28;20504;-67
2022/08/29 02:58:44;;;;;;;7.68;3.20;;;;;;;19.33;46.08;100848.09;4113482;28;20049;-67
2022/08/29 03:00:47;;;;;;;8.27;3.22;;;;;;;19.28;46.75;100856.97;4112971;28;20042;-67
2022/08/29 03:02:53;;;;;;;8.93;3.05;;;;;;;19.19;46.61;100855.34;4111588;28;20058;-68
2022/08/29 03:04:58;;;;;;;9.95;2.80;;;;;;;19.24;46.71;100852.63;4114910;28;20057;-68
2022/08/29 03:07:04;;;;;;;9.65;2.60;;;;;;;19.17;47.07;100855.34;4112001;28;20141;-68
2022/08/29 03:09:06;;;;;;;8.15;2.60;;;;;;;19.14;47.47;100852.78;4106841;28;20049;-67
2022/08/29 03:11:12;;;;;;;5.75;2.63;;;;;;;19.19;47.29;100855.34;4113561;28;20038;-67
2022/08/29 03:13:17;;;;;;;7.68;3.50;;;;;;;19.26;47.23;100856.09;4114241;28;20170;-68
2022/08/29 03:15:21;;;;;;;7.78;3.00;;;;;;;19.27;46.59;100863.13;4114762;28;20039;-67
2022/08/29 03:17:24;;;;;;;8.40;2.92;;;;;;;19.18;47.30;100859.72;4113583;28;20122;-67
2022/08/29 03:19:27;;;;;;;5.80;2.90;;;;;;;19.22;46.89;100855.28;4114961;28;20057;-67
2022/08/29 03:21:32;;;;;;;8.57;2.53;;;;;;;19.20;47.23;100851.78;4113523;28;20397;-67
2022/08/29 03:23:35;;;;;;;6.20;2.92;;;;;;;19.25;47.03;100859.66;4114192;28;20042;-67
2022/08/29 03:25:38;;;;;;;7.68;3.25;;;;;;;19.28;47.46;100857.81;4121557;28;20034;-67
2022/08/29 03:27:41;;;;;;;12.48;3.70;;;;;;;19.33;46.45;100858.63;4114533;28;20043;-67
2022/08/29 03:29:44;;;;;;;8.45;3.13;;;;;;;19.27;46.81;100847.28;4113319;28;20061;-67
2022/08/29 03:31:47;;;;;;;8.40;2.95;;;;;;;19.17;47.40;100849.19;4113597;28;20035;-67
2022/08/29 03:33:49;;;;;;;10.60;3.53;;;;;;;19.10;47.61;100840.53;4113034;28;20507;-67
2022/08/29 03:35:52;;;;;;;8.38;2.47;;;;;;;19.17;47.25;100849.19;4113524;28;20069;-68
2022/08/29 03:37:57;;;;;;;12.18;2.75;;;;;;;19.12;47.38;100849.25;4126697;28;20050;-69
2022/08/29 03:40:00;;;;;;;;;;;;;;;18.97;47.52;100852.16;4110730;28;20125;-68
2022/08/29 03:42:03;;;;;;;8.63;2.70;;;;;;;18.97;47.82;100850.38;4112315;28;19922;-68
2022/08/29 03:44:06;;;;;;;10.93;3.03;;;;;;;19.03;47.96;100852.06;4114820;28;20049;-67
2022/08/29 03:46:09;;;;;;;10.10;3.20;;;;;;;18.95;47.91;100849.53;4112789;28;20055;-68
2022/08/29 03:48:12;;;;;;;6.93;2.88;;;;;;;18.96;47.74;100847.75;4128338;28;20490;-67
2022/08/29 03:50:18;;;;;;;8.88;3.08;;;;;;;18.91;47.97;100860.13;4107798;28;20042;-63
2022/08/29 03:52:20;;;;;;;7.90;2.70;;;;;;;19.02;47.49;100850.31;4129214;28;20042;-63
2022/08/29 03:54:25;;;;;;;9.52;3.60;;;;;;;18.99;47.40;100847.72;4112732;28;20035;-64
2022/08/29 03:56:29;;;;;;;7.88;3.03;;;;;;;18.94;47.46;100854.78;4105572;28;20035;-63
2022/08/29 03:58:31;;;;;;;9.35;3.15;;;;;;;18.86;47.76;100854.91;4126961;28;20097;-63
2022/08/29 04:00:34;;;;;;;8.38;2.70;;;;;;;18.91;47.42;100845.19;4114138;28;20038;-63
2022/08/29 04:02:38;;;;;;;9.63;3.20;;;;;;;18.84;47.41;100840.88;4113893;28;20038;-63
2022/08/29 04:07:07;;;;;;;7.82;3.13;;;;;;;18.76;47.59;100846.25;4109595;28;20109;-63
2022/08/29 04:09:10;;;;;;;12.75;3.05;;;;;;;18.78;47.96;100843.59;4113616;28;20118;-63
2022/08/29 04:11:15;;;;;;;7.25;3.00;;;;;;;18.77;47.57;100842.69;4113964;28;20407;-63
2022/08/29 04:13:18;;;;;;;9.30;3.08;;;;;;;18.75;47.82;100839.22;4110748;28;20051;-71
2022/08/29 04:15:22;;;;;;;8.75;2.92;;;;;;;18.66;48.06;100842.88;4110839;28;20045;-73
2022/08/29 04:17:25;;;;;;;7.70;3.45;;;;;;;18.69;48.21;100841.97;4128567;28;20049;-72
2022/08/29 04:19:27;;;;;;;8.07;2.78;;;;;;;18.57;48.03;100836.84;4131962;28;20038;-73
2022/08/29 04:21:30;;;;;;;8.00;2.75;;;;;;;18.51;48.36;100837.78;4114134;28;20473;-73
2022/08/29 04:23:35;;;;;;;7.72;3.17;;;;;;;18.54;48.55;100839.50;4117423;28;20039;-73
2022/08/29 04:25:38;;;;;;;;;;;;;;;18.38;48.60;100839.69;4117424;28;20435;-73
2022/08/29 04:27:43;;;;;;;7.30;2.58;;;;;;;18.49;48.45;100840.44;4118295;28;19929;-73
2022/08/29 04:29:47;;;;;;;7.43;2.75;;;;;;;18.46;48.23;100845.75;4117296;28;20045;-72
2022/08/29 04:31:49;;;;;;;8.60;3.38;;;;;;;18.53;48.13;100837.75;4117026;28;20057;-72
2022/08/29 04:33:53;;;;;;;8.73;3.08;;;;;;;18.52;48.37;100852.69;4116486;28;20519;-72
2022/08/29 04:35:56;;;;;;;10.13;3.28;;;;;;;18.43;48.59;100851.03;4117965;28;20488;-72
2022/08/29 04:37:58;;;;;;;10.60;3.58;;;;;;;18.44;48.35;100857.16;4118069;28;20083;-72
2022/08/29 04:40:02;;;;;;;11.48;2.97;;;;;;;18.45;48.11;100864.19;4118040;28;20415;-73
2022/08/29 04:42:05;;;;;;;11.23;3.67;;;;;;;18.43;48.01;100855.44;4118029;28;20039;-72
2022/08/29 04:44:10;;;;;;;7.78;3.13;;;;;;;18.40;48.19;100860.72;4116409;28;20049;-73
2022/08/29 04:46:14;;;;;;;7.00;2.92;;;;;;;18.37;48.68;100861.66;4132354;28;20097;-72
2022/08/29 04:48:26;;;;;;;8.38;3.22;;;;;;;18.38;48.55;100863.38;4114763;28;20039;-72
2022/08/29 04:50:29;;;;;;;8.52;3.70;;;;;;;18.43;48.45;100864.22;4100537;29;20039;-72
2022/08/29 04:52:32;;;;;;;15.85;4.05;;;;;;;18.32;49.04;100866.09;4117901;28;20073;-72
2022/08/29 04:54:35;;;;;;;14.90;3.85;;;;;;;18.33;48.76;100874.88;4115202;28;20085;-72
2022/08/29 04:56:38;;;;;;;13.05;5.05;;;;;;;18.34;48.94;100871.34;4117668;28;20053;-72
2022/08/29 04:58:50;;;;;;;14.98;6.50;;;;;;;18.36;49.26;100862.53;4117793;28;20109;-73
2022/08/29 05:00:55;;;;;;;12.77;6.70;;;;;;;18.34;49.19;100868.69;4117019;28;20050;-72
2022/08/29 05:02:58;;;;;;;17.35;7.20;;;;;;;18.40;48.99;100868.63;4116147;28;20094;-71
2022/08/29 05:05:02;;;;;;;20.63;8.70;;;;;;;18.45;48.66;100874.72;4117279;28;20062;-72
2022/08/29 05:07:05;;;;;;;13.27;7.38;;;;;;;18.47;48.88;100880.81;4116418;28;20722;-72
2022/08/29 05:09:08;;;;;;;18.27;7.95;;;;;;;18.52;48.93;100879.03;4117625;28;20043;-73
2022/08/29 05:11:13;;;;;;;17.77;7.80;;;;;;;18.52;48.83;100883.44;4117636;28;20130;-72
2022/08/29 05:13:24;;;;;;;21.58;9.10;;;;;;;18.47;48.80;100881.72;4117223;28;20137;-72
2022/08/29 05:15:27;;;;;;;18.30;9.13;;;;;;;18.58;48.86;100883.34;4114476;28;20050;-72
2022/08/29 05:17:31;;;;;;;14.52;8.02;;;;;;;18.60;48.60;100879.81;4115690;28;20050;-72
2022/08/29 05:19:34;;;;;;;16.60;7.97;;;;;;;18.51;48.70;100886.94;4117377;28;20514;-72
2022/08/29 05:21:38;;;;;;;17.50;7.45;;;;;;;18.51;49.05;100885.16;4117447;28;20038;-72
2022/08/29 05:23:42;;;;;;;18.30;6.82;;;;;;;18.58;49.09;100888.63;4116885;28;20047;-72
2022/08/29 05:25:45;;;;;;;18.10;6.07;;;;;;;18.59;49.09;100896.50;4116650;28;20050;-71
2022/08/29 05:27:50;;;;;;;19.53;6.00;;;;;;;18.60;48.78;100898.25;4115145;28;20058;-71
2022/08/29 05:29:54;;;;;;;16.63;5.57;;;;;;;18.66;48.74;100892.91;4117263;28;20039;-71
2022/08/29 05:31:57;;;;;;;11.57;4.97;;;;;;;18.76;48.11;100887.50;4116058;28;20047;-72
2022/08/29 05:34:01;;;;;;;18.67;5.13;;;;;;;18.73;48.31;100893.69;4116963;28;20492;-72
2022/08/29 05:36:24;;;;;;;19.27;5.60;;;;;;;18.78;48.71;100897.13;4116530;28;20042;-72
2022/08/29 05:38:27;;;;;;;15.38;4.78;;;;;;;18.87;48.10;100892.69;4116949;28;20046;-72
2022/08/29 05:40:30;;;;;;;10.52;4.35;;;;;;;18.88;48.34;100897.03;4115778;28;20389;-72
2022/08/29 05:42:33;;;;;;;19.08;4.07;;;;;;;18.91;48.00;100891.72;4117174;28;20409;-72
2022/08/29 05:44:37;;;;;;;14.60;4.28;;;;;;;18.86;48.07;100891.78;4116174;28;20041;-73
2022/08/29 05:46:40;;;;;;;13.97;4.47;;;;;;;18.85;48.06;100895.28;4116908;28;20042;-72
2022/08/29 05:48:43;;;;;;;13.63;4.57;;;;;;;18.81;47.96;100890.97;4117016;28;20074;-71
2022/08/29 05:50:47;;;;;;;14.65;3.70;;;;;;;18.86;48.12;100893.53;4115778;28;20046;-72
2022/08/29 05:52:50;;;;;;;11.50;3.10;;;;;;;18.84;47.88;100890.91;4109029;28;20051;-72
2022/08/29 05:54:52;;;;;;;19.60;3.90;;;;;;;18.87;47.93;100893.53;4116672;28;20062;-71
2022/08/29 05:56:55;;;;;;;13.75;4.00;;;;;;;18.86;48.38;100897.06;4099658;29;20524;-71
2022/08/29 05:58:58;;;;;;;8.70;3.53;;;;;;;18.91;48.01;100897.00;4116311;28;20039;-72
2022/08/29 06:01:01;;;;;;;8.95;3.70;;;;;;;18.95;47.72;100903.97;4116747;28;20054;-73
2022/08/29 06:03:04;;;;;;;9.25;3.35;;;;;;;18.92;47.61;100901.38;4116642;28;20039;-72
2022/08/29 06:05:09;;;;;;;12.00;3.53;;;;;;;18.97;47.49;100910.13;4098415;29;20044;-72
2022/08/29 06:07:14;;;;;;;12.25;3.75;;;;;;;18.93;47.81;100904.00;4116668;28;20064;-72
2022/08/29 06:09:17;;;;;;;10.18;3.10;;;;;;;18.91;47.39;100907.53;4116662;28;20397;-73
2022/08/29 06:11:22;;;;;;;8.95;3.00;;;;;;;18.91;47.60;100903.16;4115518;28;20043;-72
2022/08/29 06:13:25;;;;;;;11.35;3.83;;;;;;;18.89;47.67;100904.06;4114931;28;20042;-72
2022/08/29 06:15:28;;;;;;;9.63;3.03;;;;;;;18.83;47.82;100904.97;4116685;28;20117;-71
2022/08/29 06:17:31;;;;;;;10.10;3.65;;;;;;;18.92;47.72;100904.88;4109822;28;20049;-73
2022/08/29 06:19:34;;;;;;;12.77;3.92;;;;;;;18.92;47.71;100909.28;4116067;28;20416;-72
2022/08/29 06:21:37;;;;;;;13.07;3.70;;;;;;;18.89;47.70;100904.06;4115125;28;20042;-72
2022/08/29 06:23:43;;;;;;;10.82;3.33;;;;;;;19.00;47.42;100904.78;4116219;28;20049;-72
2022/08/29 06:25:46;;;;;;;16.95;3.35;;;;;;;18.96;47.80;100911.00;4115048;28;20097;-72
2022/08/29 06:27:55;;;;;;;12.60;3.33;;;;;;;19.02;47.68;100908.28;4115320;28;20436;-71
2022/08/29 06:29:58;;;;;;;14.80;3.90;;;;;;;19.10;47.58;100909.03;4116435;28;20043;-71
2022/08/29 06:32:04;;;;;;;12.52;3.60;;;;;;;19.12;47.38;100906.38;4115707;28;20047;-73
2022/08/29 06:34:08;;;;;;;11.75;3.50;;;;;;;19.06;47.24;100917.03;4113973;28;20395;-72
2022/08/29 06:36:12;;;;;;;17.77;4.40;;;;;;;18.99;47.33;100918.84;4130850;28;20381;-72
2022/08/29 06:38:15;;;;;;;11.73;3.83;;;;;;;18.92;47.71;100914.56;4114986;28;20036;-71
2022/08/29 06:40:20;;;;;;;13.90;3.78;;;;;;;18.98;48.32;100918.00;4098776;28;20350;-71
2022/08/29 06:42:23;;;;;;;;;;;;;;;19.08;47.78;100923.13;4116718;28;20475;-71
2022/08/29 06:44:30;;;;;;;11.60;3.63;;;;;;;19.13;47.52;100923.97;4115830;28;19922;-71
2022/08/29 06:46:36;;;;;;;10.68;3.22;;;;;;;19.12;47.87;100919.56;4115396;28;20050;-71
2022/08/29 06:48:39;;;;;;;15.93;3.50;;;;;;;19.22;47.66;100923.81;4114898;28;20053;-73
2022/08/29 06:50:41;;;;;;;21.70;3.60;;;;;;;19.31;47.51;100921.03;4130839;28;20077;-71
2022/08/29 06:52:47;;;;;;;16.63;4.15;;;;;;;19.39;47.39;100931.50;4114914;28;20053;-71
2022/08/29 06:54:50;;;;;;;9.65;3.42;;;;;;;19.37;46.78;100928.00;4098518;29;20079;-71
2022/08/29 06:56:57;;;;;;;20.35;4.57;;;;;;;19.42;46.67;100928.81;4115972;28;20043;-72
2022/08/29 06:58:59;;;;;;;19.60;3.58;;;;;;;19.44;47.33;100931.41;4114769;28;20049;-71
2022/08/29 07:01:06;;;;;;;16.33;3.45;;;;;;;19.56;46.68;100927.72;4114490;28;20500;-71
2022/08/29 07:03:10;;;;;;;17.58;4.07;;;;;;;19.64;45.94;100934.63;4115629;28;20463;-71
2022/08/29 07:05:14;;;;;;;12.70;3.50;;;;;;;19.61;46.85;100933.78;4115549;28;20031;-71
2022/08/29 07:07:17;;;;;;;14.63;3.88;;;;;;;19.61;46.90;100931.13;4114662;28;20075;-71
2022/08/29 07:09:20;;;;;;;14.23;4.03;;;;;;;19.69;46.62;100935.41;4115850;28;20050;-71
2022/08/29 07:11:24;;;;;;;16.08;3.83;;;;;;;19.85;45.82;100933.41;4115879;28;20488;-71
2022/08/29 07:13:28;;;;;;;14.90;3.17;;;;;;;19.86;45.94;100932.53;4114679;28;20081;-71
2022/08/29 07:15:31;;;;;;;;;;;;;;;19.74;46.43;100937.09;4116126;28;20555;-71
2022/08/29 07:17:34;;;;;;;11.90;3.50;;;;;;;19.93;45.98;100937.69;4113368;28;19932;-71
2022/08/29 07:19:37;;;;;;;17.80;3.15;;;;;;;20.01;46.42;100933.16;4130361;28;20044;-71
2022/08/29 07:21:42;;;;;;;16.75;4.30;;;;;;;20.20;45.13;100931.94;4115698;28;20186;-71
2022/08/29 07:23:45;;;;;;;12.30;3.92;;;;;;;20.14;45.16;100937.31;4115387;28;20054;-71
2022/08/29 07:25:48;;;;;;;9.35;3.20;;;;;;;20.08;45.88;100937.44;4115557;28;20400;-71
2022/08/29 07:27:51;;;;;;;13.00;4.18;;;;;;;20.29;45.17;100935.31;4115711;28;20039;-72
2022/08/29 07:29:56;;;;;;;13.77;4.03;;;;;;;20.33;45.11;100934.34;4115618;28;20413;-72
2022/08/29 07:32:00;;;;;;;10.57;3.80;;;;;;;20.25;45.35;100936.25;4114760;28;20047;-72
2022/08/29 07:34:03;;;;;;;11.13;3.40;;;;;;;20.26;45.10;100938.00;4097472;28;20083;-71
2022/08/29 07:36:07;;;;;;;8.43;2.92;;;;;;;20.35;45.05;100943.13;4114854;28;20041;-71
2022/08/29 07:38:10;;;;;;;9.85;3.60;;;;;;;20.43;45.24;100941.22;4115036;28;20126;-71
2022/08/29 07:40:16;;;;;;;10.93;3.70;;;;;;;20.58;44.97;100930.31;4114379;28;20087;-71
2022/08/29 07:42:19;;;;;;;15.00;3.70;;;;;;;20.60;45.26;100930.28;4109416;28;20065;-71
2022/08/29 07:44:21;;;;;;;10.65;3.03;;;;;;;20.62;44.69;100943.47;4114980;28;20046;-71
2022/08/29 07:46:26;;;;;;;7.57;2.50;;;;;;;20.64;44.57;100936.41;4115298;28;20489;-71
2022/08/29 07:48:29;;;;;;;;;;;;;;;20.59;45.18;100939.16;4115900;28;20041;-71
2022/08/29 07:50:32;;;;;;;11.35;3.65;;;;;;;20.74;44.71;100935.34;4132190;28;20358;-73
2022/08/29 07:52:35;;;;;;;12.02;3.72;;;;;;;20.85;44.26;100932.47;4117445;28;20042;-72
2022/08/29 07:54:38;;;;;;;10.63;3.10;;;;;;;20.87;44.08;100939.47;4117321;28;20047;-71
2022/08/29 07:56:42;;;;;;;10.35;3.80;;;;;;;20.82;44.30;100946.66;4117951;28;20030;-71
2022/08/29 07:58:46;;;;;;;7.80;2.53;;;;;;;20.92;44.25;100942.91;4118522;28;20416;-71
2022/08/29 08:00:48;;;;;;;7.57;3.47;;;;;;;21.07;43.51;100951.38;4118545;28;20057;-71
2022/08/29 08:02:53;;;;;;;10.32;2.70;;;;;;;20.95;43.94;100936.66;4118556;28;20497;-71
2022/08/29 08:04:56;;;;;;;;;;;;;;;20.97;44.22;100949.84;4117827;28;20046;-71
2022/08/29 08:06:58;;;;;;;8.85;3.10;;;;;;;21.03;44.29;100944.44;4118401;28;19922;-71
2022/08/29 08:09:02;;;;;;;11.35;2.63;;;;;;;20.97;44.47;100944.56;4117282;28;20070;-71
2022/08/29 08:11:06;;;;;;;12.35;3.22;;;;;;;20.98;44.34;100941.03;4132669;28;20504;-72
2022/08/29 08:13:09;;;;;;;8.05;2.83;;;;;;;21.15;44.26;100949.47;4118277;28;20053;-71
2022/08/29 08:15:13;;;;;;;12.10;3.25;;;;;;;21.26;44.12;100935.97;4118366;28;20057;-71
2022/08/29 08:17:16;;;;;;;9.68;3.75;;;;;;;21.36;43.33;100947.22;4118482;28;20133;-71
2022/08/29 08:19:20;;;;;;;11.07;3.10;;;;;;;21.38;43.32;100942.81;4118317;28;20039;-71
2022/08/29 08:21:24;;;;;;;11.32;3.17;;;;;;;21.47;43.46;100942.56;4116429;28;20047;-71
2022/08/29 08:23:27;;;;;;;12.82;3.67;;;;;;;21.61;43.17;100947.56;4116657;28;20043;-73
2022/08/29 08:25:30;;;;;;;8.38;2.92;;;;;;;21.72;42.62;100949.97;4118269;28;20070;-72
2022/08/29 08:27:32;;;;;;;7.22;3.15;;;;;;;21.62;42.89;100946.66;4118296;28;20431;-73
2022/08/29 08:29:43;;;;;;;7.50;2.95;;;;;;;21.53;43.36;100947.75;4115280;28;20042;-71
2022/08/29 08:31:48;;;;;;;8.25;3.72;;;;;;;21.67;42.60;100947.44;4116639;28;20475;-73
2022/08/29 08:33:51;;;;;;;11.20;3.08;;;;;;;21.70;42.14;100946.47;4116983;28;20156;-71
2022/08/29 08:35:56;;;;;;;9.75;3.17;;;;;;;21.81;42.79;100949.72;4115968;28;20042;-71
2022/08/29 08:38:00;;;;;;;5.85;2.75;;;;;;;21.72;43.01;100949.97;4114651;28;20514;-70
2022/08/29 08:40:04;;;;;;;8.00;2.88;;;;;;;21.82;42.98;100946.19;4111377;28;20049;-70
2022/08/29 08:42:13;;;;;;;22.33;3.80;;;;;;;22.01;42.10;100945.72;4131370;28;20093;-72
2022/08/29 08:44:44;;;;;;;10.88;3.25;;;;;;;22.04;42.67;100943.84;4115344;28;20035;-71
2022/08/29 08:46:51;;;;;;;10.27;3.25;;;;;;;22.21;42.00;100945.19;4116270;28;20070;-71
2022/08/29 08:48:56;;;;;;;12.52;3.20;;;;;;;22.18;41.88;100954.09;4101967;28;20046;-71
2022/08/29 08:51:07;;;;;;;9.48;2.38;;;;;;;22.08;42.58;100947.31;4120438;28;20034;-70
2022/08/29 08:53:16;;;;;;;11.23;3.80;;;;;;;22.22;41.52;100950.44;4116313;28;20038;-71
2022/08/29 08:55:28;;;;;;;8.35;2.75;;;;;;;22.17;42.08;100935.59;4116617;28;20145;-71
2022/08/29 08:57:38;;;;;;;8.70;3.10;;;;;;;22.28;42.03;100941.47;4116509;28;20049;-71
2022/08/29 08:59:44;;;;;;;9.38;3.38;;;;;;;22.29;41.68;100941.44;4116569;28;20504;-71
2022/08/29 09:01:59;;;;;;;12.27;3.65;;;;;;;22.48;41.99;100948.91;4115165;28;20039;-72
2022/08/29 09:04:32;;;;;;;12.45;3.72;;;;;;;22.52;41.51;100937.31;4111971;28;20085;-72
2022/08/29 09:06:47;;;;;;;10.05;3.05;;;;;;;22.54;41.04;100948.75;4106222;28;20090;-71
2022/08/29 09:08:59;;;;;;;10.73;3.22;;;;;;;22.44;41.39;100952.56;4117597;28;20046;-71
2022/08/29 09:11:10;;;;;;;11.95;3.55;;;;;;;22.53;41.12;100954.06;4099151;28;20055;-72
2022/08/29 09:13:26;;;;;;;9.48;3.60;;;;;;;22.67;41.18;100963.38;4099279;29;20528;-71
2022/08/29 09:15:33;;;;;;;8.45;3.00;;;;;;;22.61;41.66;100954.75;4117488;28;20045;-71
2022/08/29 09:17:42;;;;;;;12.27;3.90;;;;;;;22.83;41.34;100955.00;4116161;28;20129;-71
2022/08/29 09:19:47;;;;;;;11.65;3.83;;;;;;;23.01;40.71;100961.53;4115006;28;20558;-71
2022/08/29 09:21:54;;;;;;;13.90;3.53;;;;;;;22.93;40.79;100959.13;4115637;28;20057;-71
2022/08/29 09:23:59;;;;;;;7.03;2.78;;;;;;;22.85;41.05;100955.81;4116988;28;20038;-71
2022/08/29 09:26:02;;;;;;;9.65;3.50;;;;;;;22.92;41.40;100962.69;4116050;28;20145;-71
2022/08/29 09:28:07;;;;;;;8.73;3.53;;;;;;;23.05;41.12;100963.19;4117424;28;20051;-72
2022/08/29 09:30:14;;;;;;;18.13;3.67;;;;;;;23.31;40.36;100958.94;4100048;29;20035;-72
2022/08/29 09:32:17;;;;;;;16.80;3.65;;;;;;;23.27;40.49;100952.81;4117283;28;20133;-71
2022/08/29 09:34:34;;;;;;;17.58;3.90;;;;;;;23.43;39.79;100957.66;4115801;28;20397;-71
2022/08/29 09:36:59;;;;;;;14.82;3.40;;;;;;;23.42;39.89;100953.28;4124359;28;20044;-70
2022/08/29 09:39:17;;;;;;;11.73;3.05;;;;;;;23.35;40.36;100948.16;4115123;28;20051;-71
2022/08/29 09:41:28;;;;;;;8.27;3.08;;;;;;;23.38;40.27;100946.31;4112507;28;20038;-70
2022/08/29 09:43:46;;;;;;;10.95;3.00;;;;;;;23.37;40.50;100948.13;4115554;28;20039;-71